Monday, July 23, 2018, 11:13 AM EDT
Back to Local

KPSM, Pease Air Force Base / Portsmouth

Location: Portsmouth, NH, United States Lat: 43.083
Local Time: 11:13 AM EDT (15:13 GMT) Lon: -70.817
Time Zone: US/Eastern Elev: 101 ft

Show me the last for .
Show Decoded

2018-07-23 10:30 METAR KPSM 231430Z 15013KT 7SM SCT007 BKN027 24/21 A3024 RMK AO2A =
2018-07-23 09:56 METAR KPSM 231356Z 14010KT 5SM BR BKN006 BKN030 23/21 A3023 RMK AO2A SLP239
                 T02330212 =
2018-07-23 08:56 METAR KPSM 231256Z 14010KT 4SM BR OVC005 22/21 A3023 RMK AO2A SLP239 T02180208 =
2018-07-23 07:56 METAR KPSM 231156Z 13009KT 3SM BR OVC004 22/21 A3021 RMK AO2A SLP232 60000 70032
                 T02150208 10215 20205 52014 =
2018-07-23 06:56 METAR KPSM 231056Z 14008KT 4SM BR OVC003 21/21 A3020 RMK AO2A SLP228 T02110209 =
2018-07-23 05:56 METAR KPSM 230956Z 13007KT 3SM BR OVC003 21/21 A3019 RMK AO2A RAE28 SLP225 P0000
                 T02060206 =
2018-07-23 05:29 METAR KPSM 230929Z 14009KT 3SM BR OVC004 21/21 A3018 RMK AO2A =
2018-07-23 04:56 METAR KPSM 230856Z COR 13007KT 3SM -RA BR OVC004 21/21 A3018 RMK AO2A SLP222
                 P0000 60000 T02060206 53003 COR 0910 =
2018-07-23 03:56 METAR KPSM 230756Z 15008KT 3SM -RA BR OVC003 21/20 A3017 RMK AO2A RAB55 SLP218
                 P0000 T02090204 =
2018-07-23 02:56 METAR KPSM 230656Z 13009KT 3SM BR OVC003 21/21 A3016 RMK AO2A SLP215 T02090205 =
2018-07-23 01:56 METAR KPSM 230556Z 14009KT 3SM BR OVC003 21/21 A3017 RMK AO2A SLP218 60000
                 T02100208 10213 20209 57003 =
2018-07-23 00:56 METAR KPSM 230456Z 14009KT 3SM BR OVC003 21/21 A3017 RMK AO2A SLP218 T02090207
                 402310170 =
2018-07-22 23:56 METAR KPSM 230356Z 13010KT 3SM BR OVC003 21/21 A3017 RMK AO2A DZE15 SLP218 P0000
                 T02100208 =
2018-07-22 23:16 METAR KPSM 230316Z 13006KT 3SM BR OVC003 21/21 A3018 RMK AO2A =
2018-07-22 22:56 METAR KPSM 230256Z COR 14008KT 4SM -DZ BR OVC005 21/21 A3017 RMK AO2A RAE35DZB35
                 SLP219 P0000 60000 T02100205 51010 COR 0310 =
2018-07-22 21:56 METAR KPSM 230156Z COR 14008KT 7SM -RA OVC005 21/21 A3017 RMK AO2A RAB54 SLP219
                 P0000 T02100205 COR 0224 =
2018-07-22 20:56 METAR KPSM 230056Z 12007KT 7SM BKN005 BKN046 OVC070 21/20 A3016 RMK AO2A SLP215
                 T02100201 =
2018-07-22 19:56 METAR KPSM 222356Z 13007KT 8SM FEW005 BKN044 OVC110 21/20 A3014 RMK AO2A SLP208
                 60000 T02130203 10231 20213 52012 =
2018-07-22 19:19 METAR KPSM 222319Z 12007KT 6SM BR BKN005 OVC047 22/21 A3013 RMK AO2A =
2018-07-22 18:56 METAR KPSM 222256Z 11005KT 5SM BR SCT005 BKN047 OVC060 22/21 A3013 RMK AO2A
                 SLP205 T02210209 =
2018-07-22 18:42 METAR KPSM 222242Z 11006KT 6SM BR SCT006 BKN060 BKN210 22/21 A3012 RMK AO2A =
2018-07-22 18:32 METAR KPSM 222232Z 13007KT 6SM BR BKN006 OVC070 22/21 A3013 RMK AO2A =
2018-07-22 18:07 METAR KPSM 222207Z 13008KT 6SM BR BKN007 BKN070 OVC210 22/21 A3012 RMK AO2A =
2018-07-22 17:56 METAR KPSM 222156Z 12006KT 6SM BR SCT008 BKN070 BKN210 23/21 A3011 RMK AO2A
                 SLP198 T02280210 =
2018-07-22 17:22 METAR KPSM 222122Z 13006KT 6SM BR SCT007 BKN070 OVC210 23/21 A3011 RMK AO2A =
2018-07-22 16:56 METAR KPSM 222056Z 13007KT 6SM BR BKN007 BKN160 OVC220 23/21 A3011 RMK AO2A
                 RAB36E55 SLP198 P0000 60000 T02250213 50005 =
2018-07-22 16:36 METAR KPSM 222036Z 12008KT 6SM -RA BR FEW006 SCT048 BKN055 OVC160 23/22 A3011
                 RMK AO2A =
2018-07-22 15:56 METAR KPSM 221956Z 14007KT 5SM BR SCT006 BKN040 OVC070 22/21 A3011 RMK AO2A
                 RAB32E50 SLP198 P0000 T02220213 =
2018-07-22 15:50 METAR KPSM 221950Z 13007KT 6SM BR FEW006 BKN040 OVC070 22/21 A3011 RMK AO2A =
2018-07-22 15:32 METAR KPSM 221932Z 14009KT 5SM -RA BR SCT006 BKN040 OVC070 22/22 A3010 RMK AO2A
                 =
2018-07-22 15:06 METAR KPSM 221906Z 14010KT 5SM BR OVC007 22/22 A3010 RMK AO2A =
2018-07-22 14:56 METAR KPSM 221856Z 14009KT 5SM BR OVC006 22/22 A3010 RMK AO2A RAE56 SLP195 P0000
                 T02240217 =
2018-07-22 14:04 METAR KPSM 221804Z 13012KT 3SM -RA BR OVC005 22/22 A3009 RMK AO2A =
2018-07-22 13:56 METAR KPSM 221756Z 13010KT 2SM -RA BR OVC005 22/22 A3009 RMK AO2A SLP191 P0001
                 60032 T02170215 10217 20174 55005 =
2018-07-22 13:39 METAR KPSM 221739Z 12010KT 2 1/2SM -RA BR OVC005 22/22 A3009 RMK AO2A =
2018-07-22 12:56 METAR KPSM 221656Z 07007KT 2SM -RA BR OVC003 21/21 A3008 RMK AO2A SLP188 P0004
                 T02060206 =
2018-07-22 11:56 METAR KPSM 221556Z 06010G15KT 1 1/2SM -RA BR OVC004 19/19 A3010 RMK AO2A SLP195
                 P0005 T01880186 =
2018-07-22 11:41 METAR KPSM 221541Z 07006KT 1 1/4SM -RA BR OVC005 19/18 A3011 RMK AO2A =

Support USWX by starting your Amazon purchase here.